createdAt,value
2019-04-04T00:01:00.186Z,98218.45
2019-04-04T00:03:29.364Z,98217.63
2019-04-04T00:05:58.551Z,98206.30
2019-04-04T00:08:30.876Z,98203.92
2019-04-04T00:10:58.557Z,98206.05
2019-04-04T00:13:27.707Z,98199.83
2019-04-04T00:15:56.944Z,98201.94
2019-04-04T00:18:27.355Z,98202.41
2019-04-04T00:20:57.089Z,98187.42
2019-04-04T00:23:26.493Z,98181.83
2019-04-04T00:25:55.594Z,98191.55
2019-04-04T00:28:24.757Z,98209.34
2019-04-04T00:30:53.953Z,98205.34
2019-04-04T00:33:23.823Z,98202.30
2019-04-04T00:35:54.054Z,98189.09
2019-04-04T00:38:23.248Z,98199.72
2019-04-04T00:40:52.727Z,98197.27
2019-04-04T00:43:22.003Z,98198.91
2019-04-04T00:45:51.176Z,98195.84
2019-04-04T00:48:20.351Z,98196.44
2019-04-04T00:50:49.726Z,98180.16
2019-04-04T00:53:18.825Z,98181.20
2019-04-04T00:55:47.971Z,98172.89
2019-04-04T00:58:18.914Z,98165.75
2019-04-04T01:00:48.793Z,98169.17
2019-04-04T01:03:17.890Z,98162.27
2019-04-04T01:05:47.053Z,98161.90
2019-04-04T01:08:16.161Z,98152.30
2019-04-04T01:10:45.282Z,98138.73
2019-04-04T01:13:14.730Z,98125.75
2019-04-04T01:15:44.104Z,98119.55
2019-04-04T01:18:13.230Z,98122.22
2019-04-04T01:20:42.363Z,98133.72
2019-04-04T01:23:11.480Z,98144.38
2019-04-04T01:25:40.626Z,98141.09
2019-04-04T01:28:09.950Z,98114.64
2019-04-04T01:30:39.050Z,98095.80
2019-04-04T01:33:08.207Z,98110.44
2019-04-04T01:35:37.370Z,98108.09
2019-04-04T01:38:06.501Z,98101.19
2019-04-04T01:40:35.715Z,98102.58
2019-04-04T01:43:04.884Z,98096.61
2019-04-04T01:45:34.005Z,98080.70
2019-04-04T01:48:03.341Z,98077.67
2019-04-04T01:50:32.730Z,98086.56
2019-04-04T01:53:01.855Z,98080.95
2019-04-04T01:55:32.976Z,98089.02
2019-04-04T01:58:02.140Z,98097.80
2019-04-04T02:00:31.346Z,98113.12
2019-04-04T02:03:00.593Z,98117.09
2019-04-04T02:05:29.738Z,98112.98
2019-04-04T02:08:00.803Z,98101.98
2019-04-04T02:10:29.726Z,98084.78
2019-04-04T02:12:58.878Z,98075.84
2019-04-04T02:15:28.316Z,98079.60
2019-04-04T02:17:57.453Z,98071.05
2019-04-04T02:20:27.451Z,98049.52
2019-04-04T02:22:57.299Z,98040.86
2019-04-04T02:25:26.529Z,98058.31
2019-04-04T02:27:55.734Z,98075.98
2019-04-04T02:30:24.937Z,98066.86
2019-04-04T02:32:59.454Z,98077.95
2019-04-04T02:35:25.152Z,98065.77
2019-04-04T02:37:55.409Z,98026.19
2019-04-04T02:40:25.236Z,98043.18
2019-04-04T02:42:55.450Z,98073.73
2019-04-04T02:45:24.888Z,98065.77
2019-04-04T02:47:54.257Z,98054.77
2019-04-04T02:50:23.414Z,98033.23
2019-04-04T02:52:52.549Z,98021.86
2019-04-04T02:55:21.992Z,98025.16
2019-04-04T02:57:51.204Z,98031.12
2019-04-04T03:00:20.475Z,98026.55
2019-04-04T03:02:49.650Z,98015.77
2019-04-04T03:05:20.035Z,98011.55
2019-04-04T03:07:49.254Z,98016.71
2019-04-04T03:10:18.411Z,98025.16
2019-04-04T03:12:47.982Z,98032.38
2019-04-04T03:15:17.258Z,98033.41
2019-04-04T03:17:46.379Z,98022.64
2019-04-04T03:20:17.288Z,98012.59
2019-04-04T03:22:47.588Z,98016.09
2019-04-04T03:25:16.883Z,98014.41
2019-04-04T03:27:46.134Z,97997.08
2019-04-04T03:30:17.324Z,97964.16
2019-04-04T03:32:51.742Z,97958.80
2019-04-04T03:35:17.428Z,97959.10
2019-04-04T03:37:46.686Z,97946.80
2019-04-04T03:40:15.916Z,97934.64
2019-04-04T03:42:45.385Z,97932.15
2019-04-04T03:45:14.821Z,97943.50
2019-04-04T03:47:44.864Z,97965.40
2019-04-04T03:50:14.164Z,97976.31
2019-04-04T03:52:44.581Z,97971.27
2019-04-04T03:55:14.021Z,97965.50
2019-04-04T03:57:43.132Z,97954.41
2019-04-04T04:00:22.332Z,97938.64
2019-04-04T04:02:51.535Z,97925.66
2019-04-04T04:05:27.878Z,97936.59
2019-04-04T04:07:57.437Z,97946.06
2019-04-04T04:10:26.981Z,97946.53
2019-04-04T04:12:56.152Z,97936.33
2019-04-04T04:15:29.276Z,97937.16
2019-04-04T04:17:56.418Z,97938.95
2019-04-04T04:20:25.604Z,97937.61
2019-04-04T04:22:54.765Z,97930.66
2019-04-04T04:25:24.152Z,97934.48
2019-04-04T04:27:53.282Z,97938.50
2019-04-04T04:30:22.486Z,97934.80
2019-04-04T04:32:55.797Z,97933.98
2019-04-04T04:35:22.721Z,97939.20
2019-04-04T04:37:53.463Z,97929.71
2019-04-04T04:40:23.279Z,97926.95
2019-04-04T04:42:52.437Z,97932.48
2019-04-04T04:45:21.564Z,97924.81
2019-04-04T04:47:50.716Z,97923.80
2019-04-04T04:50:19.842Z,97921.16
2019-04-04T04:52:49.578Z,97914.51
2019-04-04T04:55:18.757Z,97921.02
2019-04-04T04:57:48.198Z,97916.00
2019-04-04T05:00:17.398Z,97920.45
2019-04-04T05:02:46.544Z,97917.03
2019-04-04T05:05:15.930Z,97910.14
2019-04-04T05:07:45.140Z,97914.62
2019-04-04T05:10:14.929Z,97910.14
2019-04-04T05:12:44.768Z,97904.66
2019-04-04T05:15:14.542Z,97900.34
2019-04-04T05:17:43.740Z,97891.59
2019-04-04T05:20:13.458Z,97895.21
2019-04-04T05:22:42.749Z,97904.86
2019-04-04T05:25:12.125Z,97910.58
2019-04-04T05:27:41.313Z,97910.47
2019-04-04T05:30:10.904Z,97912.83
2019-04-04T05:32:40.025Z,97910.58
2019-04-04T05:35:09.507Z,97900.99
2019-04-04T05:37:39.025Z,97898.59
2019-04-04T05:40:08.737Z,97883.08
2019-04-04T05:42:38.156Z,97889.62
2019-04-04T05:45:08.121Z,97891.78
2019-04-04T05:47:37.397Z,97893.48
2019-04-04T05:50:11.078Z,97894.00
2019-04-04T05:52:38.375Z,97899.72
2019-04-04T05:55:09.907Z,97902.72
2019-04-04T05:57:38.692Z,97902.05
2019-04-04T06:00:11.526Z,97895.44
2019-04-04T06:02:41.033Z,97891.95
2019-04-04T06:05:11.732Z,97897.12
2019-04-04T06:07:40.883Z,97893.80
2019-04-04T06:10:12.163Z,97904.87
2019-04-04T06:12:41.542Z,97892.60
2019-04-04T06:15:10.817Z,97891.31
2019-04-04T06:17:39.998Z,97881.82
2019-04-04T06:20:09.871Z,97892.98
2019-04-04T06:22:39.016Z,97890.78
2019-04-04T06:25:08.499Z,97899.58
2019-04-04T06:27:39.884Z,97890.56
2019-04-04T06:30:09.252Z,97895.95
2019-04-04T06:32:39.158Z,97888.68
2019-04-04T06:35:08.486Z,97901.10
2019-04-04T06:37:38.712Z,97914.04
2019-04-04T06:40:09.115Z,97910.64
2019-04-04T06:42:38.231Z,97910.99
2019-04-04T06:45:07.938Z,97903.58
2019-04-04T06:47:37.105Z,97902.24
2019-04-04T06:50:08.544Z,97911.73
2019-04-04T06:52:38.044Z,97904.32
2019-04-04T06:55:07.934Z,97907.22
2019-04-04T06:57:37.592Z,97888.29
2019-04-04T07:00:08.165Z,97893.12
2019-04-04T07:02:37.385Z,97896.27
2019-04-04T07:05:10.438Z,97903.38
2019-04-04T07:07:38.588Z,97923.98
2019-04-04T07:10:08.342Z,97923.42
2019-04-04T07:12:38.057Z,97923.17
2019-04-04T07:15:12.547Z,97910.84
2019-04-04T07:17:41.190Z,97911.55
2019-04-04T07:20:11.290Z,97919.55
2019-04-04T07:22:40.518Z,97908.90
2019-04-04T07:25:10.246Z,97929.92
2019-04-04T07:27:39.426Z,97920.33
2019-04-04T07:30:09.010Z,97927.23
2019-04-04T07:32:40.825Z,97918.79
2019-04-04T07:35:09.574Z,97926.52
2019-04-04T07:37:38.967Z,97922.70
2019-04-04T07:40:08.390Z,97909.42
2019-04-04T07:42:40.193Z,97917.37
2019-04-04T07:45:09.651Z,97916.52
2019-04-04T07:47:38.818Z,97917.63
2019-04-04T07:50:08.092Z,97914.32
2019-04-04T07:52:37.367Z,97918.48
2019-04-04T07:55:09.875Z,97924.19
2019-04-04T07:57:38.405Z,97915.72
2019-04-04T08:00:08.456Z,97918.39
2019-04-04T08:02:37.800Z,97906.70
2019-04-04T08:05:07.364Z,97914.33
2019-04-04T08:07:36.557Z,97907.98
2019-04-04T08:10:19.640Z,97896.75
2019-04-04T08:12:37.655Z,97894.98
2019-04-04T08:15:07.849Z,97892.63
2019-04-04T08:17:37.112Z,97900.39
2019-04-04T08:20:06.452Z,97909.98
2019-04-04T08:22:35.569Z,97918.81
2019-04-04T08:25:05.054Z,97924.47
2019-04-04T08:27:34.537Z,97930.86
2019-04-04T08:30:03.757Z,97932.98
2019-04-04T08:32:32.899Z,97909.38
2019-04-04T08:35:02.096Z,97910.83
2019-04-04T08:37:31.229Z,97912.55
2019-04-04T08:40:00.441Z,97909.89
2019-04-04T08:42:29.595Z,97915.16
2019-04-04T08:44:58.773Z,97909.33
2019-04-04T08:47:28.035Z,97918.65
2019-04-04T08:49:57.386Z,97923.16
2019-04-04T08:52:26.599Z,97928.80
2019-04-04T08:54:55.772Z,97922.05
2019-04-04T08:57:25.006Z,97928.70
2019-04-04T08:59:54.177Z,97932.75
2019-04-04T09:02:23.445Z,97930.44
2019-04-04T09:04:52.740Z,97926.95
2019-04-04T09:07:22.188Z,97921.91
2019-04-04T09:09:51.488Z,97911.85
2019-04-04T09:12:20.905Z,97896.20
2019-04-04T09:14:50.105Z,97886.23
2019-04-04T09:17:19.528Z,97871.44
2019-04-04T09:19:48.931Z,97863.67
2019-04-04T09:22:18.138Z,97869.22
2019-04-04T09:24:47.304Z,97868.40
2019-04-04T09:27:16.468Z,97886.37
2019-04-04T09:29:46.073Z,97891.63
2019-04-04T09:32:15.244Z,97882.81
2019-04-04T09:34:44.436Z,97876.40
2019-04-04T09:37:13.952Z,97874.76
2019-04-04T09:39:43.568Z,97897.58
2019-04-04T09:42:12.836Z,97928.52
2019-04-04T09:44:42.248Z,97901.54
2019-04-04T09:47:11.933Z,97907.80
2019-04-04T09:49:41.249Z,97910.83
2019-04-04T09:52:10.445Z,97926.65
2019-04-04T09:54:39.700Z,97937.09
2019-04-04T09:57:09.370Z,97935.66
2019-04-04T09:59:38.653Z,97940.55
2019-04-04T10:02:08.092Z,97940.00
2019-04-04T10:04:37.338Z,97938.45
2019-04-04T10:07:06.467Z,97952.30
2019-04-04T10:09:35.818Z,97950.06
2019-04-04T10:12:04.963Z,97956.88
2019-04-04T10:14:34.182Z,97962.55
2019-04-04T10:17:03.625Z,97960.28
2019-04-04T10:19:33.189Z,97956.20
2019-04-04T10:22:02.463Z,97950.81
2019-04-04T10:24:31.598Z,97950.28
2019-04-04T10:27:00.781Z,97959.56
2019-04-04T10:29:29.947Z,97957.91
2019-04-04T10:31:59.129Z,97956.94
2019-04-04T10:34:28.572Z,97944.22
2019-04-04T10:36:57.683Z,97952.80
2019-04-04T10:39:29.003Z,97960.74
2019-04-04T10:41:57.859Z,97955.55
2019-04-04T10:44:27.046Z,97947.10
2019-04-04T10:46:56.241Z,97948.20
2019-04-04T10:49:25.681Z,97956.75
2019-04-04T10:51:54.796Z,97972.14
2019-04-04T10:54:24.022Z,97970.95
2019-04-04T10:56:53.302Z,97976.63
2019-04-04T10:59:23.130Z,97972.34
2019-04-04T11:01:52.299Z,97967.98
2019-04-04T11:04:22.009Z,97964.41
2019-04-04T11:06:51.557Z,97965.05
2019-04-04T11:09:20.831Z,97959.90
2019-04-04T11:11:49.985Z,97959.44
2019-04-04T11:14:19.174Z,97963.95
2019-04-04T11:16:48.515Z,97962.92
2019-04-04T11:19:30.318Z,97960.03
2019-04-04T11:21:48.652Z,97961.16
2019-04-04T11:24:17.922Z,97965.25
2019-04-04T11:26:47.116Z,97969.11
2019-04-04T11:29:16.357Z,97972.55
2019-04-04T11:31:45.787Z,97957.98
2019-04-04T11:34:14.967Z,97945.44
2019-04-04T11:36:44.135Z,97950.25
2019-04-04T11:39:13.661Z,97966.53
2019-04-04T11:41:42.914Z,97987.11
2019-04-04T11:44:12.077Z,97989.98
2019-04-04T11:46:41.260Z,97991.59
2019-04-04T11:49:10.809Z,97997.55
2019-04-04T11:51:40.427Z,98000.83
2019-04-04T11:54:09.854Z,97997.56
2019-04-04T11:56:39.050Z,98009.61
2019-04-04T11:59:09.356Z,98008.65
2019-04-04T12:01:40.173Z,98012.16
2019-04-04T12:04:09.501Z,98019.17
2019-04-04T12:06:38.691Z,98011.25
2019-04-04T12:09:09.187Z,98009.82
2019-04-04T12:11:38.406Z,98009.77
2019-04-04T12:14:07.677Z,98024.80
2019-04-04T12:16:36.924Z,98044.53
2019-04-04T12:19:06.489Z,98053.91
2019-04-04T12:21:35.900Z,98061.37
2019-04-04T12:24:05.217Z,98051.06
2019-04-04T12:26:34.389Z,98047.98
2019-04-04T12:29:03.623Z,98058.17
2019-04-04T12:31:32.869Z,98067.68
2019-04-04T12:34:02.373Z,98069.38
2019-04-04T12:36:31.626Z,98074.13
2019-04-04T12:39:00.789Z,98090.41
2019-04-04T12:41:30.022Z,98091.81
2019-04-04T12:43:59.274Z,98081.45
2019-04-04T12:46:28.421Z,98080.06
2019-04-04T12:48:57.813Z,98083.75
2019-04-04T12:51:27.360Z,98098.73
2019-04-04T12:53:56.551Z,98095.11
2019-04-04T12:56:25.770Z,98107.17
2019-04-04T12:58:54.971Z,98112.25
2019-04-04T13:01:24.980Z,98112.11
2019-04-04T13:03:54.240Z,98120.63
2019-04-04T13:06:23.570Z,98134.01
2019-04-04T13:08:53.117Z,98128.39
2019-04-04T13:11:22.371Z,98133.55
2019-04-04T13:13:51.556Z,98133.33
2019-04-04T13:16:20.716Z,98128.14
2019-04-04T13:18:49.881Z,98126.25
2019-04-04T13:21:21.465Z,98115.26
2019-04-04T13:23:50.586Z,98115.37
2019-04-04T13:26:19.807Z,98113.26
2019-04-04T13:28:48.984Z,98107.39
2019-04-04T13:31:19.499Z,98116.41
2019-04-04T13:33:48.739Z,98123.10
2019-04-04T13:36:17.899Z,98137.52
2019-04-04T13:38:47.096Z,98160.83
2019-04-04T13:41:22.314Z,98173.58
2019-04-04T13:43:47.307Z,98188.45
2019-04-04T13:46:16.507Z,98188.06
2019-04-04T13:48:46.055Z,98193.93
2019-04-04T13:51:15.153Z,98185.54
2019-04-04T13:53:44.428Z,98174.08
2019-04-04T13:56:13.694Z,98169.14
2019-04-04T13:58:43.139Z,98162.69
2019-04-04T14:01:12.288Z,98143.14
2019-04-04T14:03:41.608Z,98135.16
2019-04-04T14:06:10.952Z,98117.48
2019-04-04T14:08:40.575Z,98117.18
2019-04-04T14:11:10.811Z,98117.69
2019-04-04T14:13:40.052Z,98110.01
2019-04-04T14:16:09.337Z,98120.40
2019-04-04T14:18:40.090Z,98123.02
2019-04-04T14:21:09.632Z,98129.22
2019-04-04T14:23:38.795Z,98129.22
2019-04-04T14:26:08.228Z,98138.81
2019-04-04T14:28:37.793Z,98154.30
2019-04-04T14:31:06.968Z,98191.64
2019-04-04T14:33:36.140Z,98224.45
2019-04-04T14:36:05.473Z,98242.03
2019-04-04T14:38:35.059Z,98236.61
2019-04-04T14:41:11.076Z,98232.87
2019-04-04T14:43:36.009Z,98221.37
2019-04-04T14:46:05.594Z,98197.07
2019-04-04T14:48:35.011Z,98181.89
2019-04-04T14:51:04.367Z,98182.16
2019-04-04T14:53:33.630Z,98190.61
2019-04-04T14:56:02.890Z,98209.52
2019-04-04T14:58:32.153Z,98227.34
2019-04-04T15:01:01.330Z,98235.01
2019-04-04T15:03:30.551Z,98239.52
2019-04-04T15:05:59.734Z,98255.14
2019-04-04T15:08:29.020Z,98254.81
2019-04-04T15:10:58.387Z,98255.08
2019-04-04T15:13:27.589Z,98251.45
2019-04-04T15:16:16.275Z,98241.71
2019-04-04T15:18:45.852Z,98245.77
2019-04-04T15:21:15.234Z,98240.47
2019-04-04T15:23:44.408Z,98246.09
2019-04-04T15:26:13.626Z,98252.86
2019-04-04T15:28:42.968Z,98247.69
2019-04-04T15:31:12.275Z,98253.42
2019-04-04T15:33:41.738Z,98256.69
2019-04-04T15:36:11.092Z,98258.48
2019-04-04T15:38:41.891Z,98268.80
2019-04-04T15:41:11.198Z,98271.37
2019-04-04T15:43:40.423Z,98274.48
2019-04-04T15:46:11.560Z,98265.03
2019-04-04T15:48:41.007Z,98261.42
2019-04-04T15:51:10.237Z,98261.63
2019-04-04T15:53:39.426Z,98254.59
2019-04-04T15:56:08.753Z,98254.14
2019-04-04T15:58:38.015Z,98257.97
2019-04-04T16:01:07.375Z,98251.36
2019-04-04T16:03:36.581Z,98244.52
2019-04-04T16:06:05.853Z,98230.44
2019-04-04T16:08:35.115Z,98243.47
2019-04-04T16:11:04.320Z,98255.48
2019-04-04T16:13:33.603Z,98266.13
2019-04-04T16:16:02.973Z,98270.83
2019-04-04T16:18:32.434Z,98272.83
2019-04-04T16:21:01.895Z,98275.04
2019-04-04T16:23:31.619Z,98267.42
2019-04-04T16:26:00.975Z,98263.69
2019-04-04T16:28:30.149Z,98266.63
2019-04-04T16:31:00.001Z,98259.93
2019-04-04T16:33:29.358Z,98266.93
2019-04-04T16:35:58.579Z,98269.38
2019-04-04T16:38:27.897Z,98272.33
2019-04-04T16:41:00.268Z,98279.36
2019-04-04T16:43:28.242Z,98279.86
2019-04-04T16:45:57.629Z,98286.77
2019-04-04T16:48:27.308Z,98301.31
2019-04-04T16:50:56.636Z,98306.12
2019-04-04T16:53:26.116Z,98312.43
2019-04-04T16:55:55.572Z,98321.70
2019-04-04T16:58:24.813Z,98325.79
2019-04-04T17:00:54.137Z,98322.14
2019-04-04T17:03:23.390Z,98326.88
2019-04-04T17:05:52.644Z,98333.18
2019-04-04T17:08:21.896Z,98341.26
2019-04-04T17:10:51.147Z,98338.58
2019-04-04T17:13:20.395Z,98336.67
2019-04-04T17:15:49.834Z,98341.96
2019-04-04T17:18:19.104Z,98349.81
2019-04-04T17:20:48.328Z,98345.27
2019-04-04T17:23:17.620Z,98348.20
2019-04-04T17:25:47.267Z,98348.78
2019-04-04T17:28:17.048Z,98346.67
2019-04-04T17:30:46.489Z,98349.23
2019-04-04T17:33:16.009Z,98359.44
2019-04-04T17:35:45.397Z,98354.87
2019-04-04T17:38:14.994Z,98346.43
2019-04-04T17:40:44.371Z,98346.41
2019-04-04T17:43:13.779Z,98346.79
2019-04-04T17:45:42.976Z,98345.09
2019-04-04T17:48:12.238Z,98347.41
2019-04-04T17:50:41.989Z,98353.10
2019-04-04T17:53:11.199Z,98358.72
2019-04-04T17:55:40.636Z,98375.59
2019-04-04T17:58:10.584Z,98377.11
2019-04-04T18:00:40.001Z,98381.20
2019-04-04T18:03:09.319Z,98384.51
2019-04-04T18:05:38.581Z,98388.38
2019-04-04T18:08:07.761Z,98393.63
2019-04-04T18:10:37.384Z,98395.38
2019-04-04T18:13:06.867Z,98401.81
2019-04-04T18:15:36.203Z,98406.97
2019-04-04T18:18:05.469Z,98416.34
2019-04-04T18:20:35.055Z,98409.11
2019-04-04T18:23:04.277Z,98405.08
2019-04-04T18:25:33.627Z,98411.48
2019-04-04T18:28:02.866Z,98426.06
2019-04-04T18:30:32.066Z,98430.20
2019-04-04T18:33:01.503Z,98419.77
2019-04-04T18:35:30.685Z,98426.06
2019-04-04T18:38:00.286Z,98423.98
2019-04-04T18:40:29.624Z,98426.94
2019-04-04T18:42:59.098Z,98448.73
2019-04-04T18:45:29.913Z,98456.47
2019-04-04T18:47:59.332Z,98455.77
2019-04-04T18:50:29.109Z,98450.72
2019-04-04T18:52:58.461Z,98453.98
2019-04-04T18:55:28.300Z,98459.41
2019-04-04T18:57:57.759Z,98446.80
2019-04-04T19:00:26.969Z,98439.90
2019-04-04T19:02:56.451Z,98436.82
2019-04-04T19:05:26.132Z,98444.09
2019-04-04T19:07:55.499Z,98448.59
2019-04-04T19:10:25.020Z,98459.48
2019-04-04T19:13:04.792Z,98460.05
2019-04-04T19:15:25.228Z,98471.77
2019-04-04T19:18:00.426Z,98479.04
2019-04-04T19:20:29.900Z,98491.70
2019-04-04T19:22:59.502Z,98494.95
2019-04-04T19:25:29.048Z,98499.92
2019-04-04T19:28:01.312Z,98503.27
2019-04-04T19:30:30.548Z,98504.89
2019-04-04T19:32:59.799Z,98510.19
2019-04-04T19:35:29.135Z,98514.87
2019-04-04T19:38:00.347Z,98518.03
2019-04-04T19:40:29.326Z,98516.94
2019-04-04T19:42:58.518Z,98511.11
2019-04-04T19:45:27.775Z,98503.52
2019-04-04T19:47:57.005Z,98497.13
2019-04-04T19:50:26.677Z,98506.97
2019-04-04T19:52:56.131Z,98510.28
2019-04-04T19:55:25.403Z,98509.45
2019-04-04T19:57:54.651Z,98511.66
2019-04-04T20:00:25.611Z,98495.28
2019-04-04T20:02:54.844Z,98488.34
2019-04-04T20:05:24.169Z,98487.47
2019-04-04T20:07:53.474Z,98500.89
2019-04-04T20:10:22.983Z,98505.34
2019-04-04T20:12:52.428Z,98503.59
2019-04-04T20:15:22.260Z,98513.06
2019-04-04T20:17:51.588Z,98515.73
2019-04-04T20:20:20.817Z,98515.40
2019-04-04T20:22:50.142Z,98510.85
2019-04-04T20:25:19.340Z,98502.86
2019-04-04T20:27:54.735Z,98497.63
2019-04-04T20:30:23.348Z,98492.13
2019-04-04T20:32:52.680Z,98500.13
2019-04-04T20:35:22.303Z,98510.42
2019-04-04T20:37:51.870Z,98512.27
2019-04-04T20:40:21.250Z,98513.41
2019-04-04T20:42:50.495Z,98519.84
2019-04-04T20:45:19.702Z,98521.72
2019-04-04T20:47:49.115Z,98521.27
2019-04-04T20:50:18.530Z,98532.30
2019-04-04T20:52:48.147Z,98532.02
2019-04-04T20:55:17.762Z,98537.77
2019-04-04T20:57:47.265Z,98538.16
2019-04-04T21:00:19.360Z,98553.39
2019-04-04T21:02:48.963Z,98548.45
2019-04-04T21:05:18.129Z,98550.63
2019-04-04T21:07:48.501Z,98546.91
2019-04-04T21:10:17.770Z,98548.96
2019-04-04T21:12:47.309Z,98555.63
2019-04-04T21:15:16.586Z,98553.90
2019-04-04T21:17:45.868Z,98551.78
2019-04-04T21:20:15.185Z,98558.38
2019-04-04T21:22:44.382Z,98549.37
2019-04-04T21:25:13.650Z,98559.42
2019-04-04T21:27:42.889Z,98553.53
2019-04-04T21:30:12.179Z,98557.45
2019-04-04T21:32:41.598Z,98555.18
2019-04-04T21:35:10.792Z,98560.88
2019-04-04T21:37:39.943Z,98551.27
2019-04-04T21:40:09.171Z,98556.34
2019-04-04T21:42:38.721Z,98563.42
2019-04-04T21:45:08.113Z,98563.61
2019-04-04T21:47:37.439Z,98571.45
2019-04-04T21:50:07.456Z,98566.18
2019-04-04T21:52:36.661Z,98574.95
2019-04-04T21:55:06.468Z,98571.77
2019-04-04T21:57:35.623Z,98572.74
2019-04-04T22:00:07.172Z,98570.34
2019-04-04T22:02:36.381Z,98567.36
2019-04-04T22:05:06.644Z,98568.96
2019-04-04T22:07:35.876Z,98571.98
2019-04-04T22:10:05.928Z,98571.30
2019-04-04T22:12:35.363Z,98577.14
2019-04-04T22:15:05.176Z,98590.09
2019-04-04T22:17:35.526Z,98597.92
2019-04-04T22:20:05.331Z,98592.89
2019-04-04T22:22:34.632Z,98596.23
2019-04-04T22:25:05.470Z,98596.08
2019-04-04T22:27:34.599Z,98605.53
2019-04-04T22:30:04.106Z,98609.18
2019-04-04T22:32:33.281Z,98605.38
2019-04-04T22:35:02.440Z,98603.33
2019-04-04T22:37:31.723Z,98609.92
2019-04-04T22:40:01.181Z,98613.20
2019-04-04T22:42:30.369Z,98614.91
2019-04-04T22:44:59.546Z,98612.19
2019-04-04T22:47:28.895Z,98618.62
2019-04-04T22:49:58.139Z,98625.83
2019-04-04T22:52:27.330Z,98624.27
2019-04-04T22:54:56.673Z,98623.55
2019-04-04T22:57:25.850Z,98621.84
2019-04-04T22:59:54.976Z,98624.69
2019-04-04T23:02:24.170Z,98630.91
2019-04-04T23:04:53.335Z,98633.48
2019-04-04T23:07:22.578Z,98629.44
2019-04-04T23:09:51.935Z,98625.58
2019-04-04T23:12:21.089Z,98630.97
2019-04-04T23:14:50.227Z,98627.41
2019-04-04T23:17:19.547Z,98618.10
2019-04-04T23:19:48.709Z,98617.89
2019-04-04T23:22:17.989Z,98610.13
2019-04-04T23:24:47.254Z,98603.42
2019-04-04T23:27:16.678Z,98597.11
2019-04-04T23:29:45.834Z,98593.73
2019-04-04T23:32:17.653Z,98595.00
2019-04-04T23:34:46.850Z,98588.34
2019-04-04T23:37:16.007Z,98588.92
2019-04-04T23:39:45.433Z,98572.05
2019-04-04T23:42:14.589Z,98580.53
2019-04-04T23:44:43.748Z,98583.05
2019-04-04T23:47:13.103Z,98585.52
2019-04-04T23:49:42.289Z,98585.86
2019-04-04T23:52:11.407Z,98585.31
2019-04-04T23:54:40.762Z,98586.35
2019-04-04T23:57:09.899Z,98584.80
2019-04-04T23:59:39.053Z,98587.73
